sensor_id;sensor_type;location;lat;lon;timestamp;P1;durP1;ratioP1;P2;durP2;ratioP2
25155;SDS011;71253;51.496;7.606;2024-01-30T00:01:52;22.63;;;10.75;;
25155;SDS011;71253;51.496;7.606;2024-01-30T00:06:54;20.30;;;10.93;;
25155;SDS011;71253;51.496;7.606;2024-01-30T00:11:56;23.27;;;11.27;;
25155;SDS011;71253;51.496;7.606;2024-01-30T00:16:58;21.75;;;11.23;;
25155;SDS011;71253;51.496;7.606;2024-01-30T00:21:59;25.13;;;11.48;;
25155;SDS011;71253;51.496;7.606;2024-01-30T00:27:01;21.85;;;11.00;;
25155;SDS011;71253;51.496;7.606;2024-01-30T00:32:03;23.63;;;11.07;;
25155;SDS011;71253;51.496;7.606;2024-01-30T00:37:04;17.85;;;10.20;;
25155;SDS011;71253;51.496;7.606;2024-01-30T00:42:06;23.83;;;10.55;;
25155;SDS011;71253;51.496;7.606;2024-01-30T00:47:08;23.83;;;11.10;;
25155;SDS011;71253;51.496;7.606;2024-01-30T00:52:10;22.02;;;10.50;;
25155;SDS011;71253;51.496;7.606;2024-01-30T00:57:11;22.10;;;10.55;;
25155;SDS011;71253;51.496;7.606;2024-01-30T01:02:13;20.95;;;10.50;;
25155;SDS011;71253;51.496;7.606;2024-01-30T01:07:15;24.38;;;11.15;;
25155;SDS011;71253;51.496;7.606;2024-01-30T01:12:16;24.25;;;11.30;;
25155;SDS011;71253;51.496;7.606;2024-01-30T01:17:18;24.75;;;11.30;;
25155;SDS011;71253;51.496;7.606;2024-01-30T01:22:20;23.58;;;10.80;;
25155;SDS011;71253;51.496;7.606;2024-01-30T01:27:21;26.05;;;11.50;;
25155;SDS011;71253;51.496;7.606;2024-01-30T01:32:23;23.08;;;10.90;;
25155;SDS011;71253;51.496;7.606;2024-01-30T01:37:24;24.02;;;11.23;;
25155;SDS011;71253;51.496;7.606;2024-01-30T01:42:26;22.83;;;11.02;;
25155;SDS011;71253;51.496;7.606;2024-01-30T01:47:28;21.35;;;11.25;;
25155;SDS011;71253;51.496;7.606;2024-01-30T01:52:30;27.60;;;11.27;;
25155;SDS011;71253;51.496;7.606;2024-01-30T01:57:33;26.25;;;11.40;;
25155;SDS011;71253;51.496;7.606;2024-01-30T02:02:35;20.40;;;10.60;;
25155;SDS011;71253;51.496;7.606;2024-01-30T02:07:38;22.13;;;11.10;;
25155;SDS011;71253;51.496;7.606;2024-01-30T02:12:40;19.52;;;10.98;;
25155;SDS011;71253;51.496;7.606;2024-01-30T02:17:41;23.52;;;10.98;;
25155;SDS011;71253;51.496;7.606;2024-01-30T02:22:43;28.92;;;11.10;;
25155;SDS011;71253;51.496;7.606;2024-01-30T02:27:45;26.90;;;10.93;;
25155;SDS011;71253;51.496;7.606;2024-01-30T02:32:47;22.02;;;11.20;;
25155;SDS011;71253;51.496;7.606;2024-01-30T02:37:49;19.02;;;11.07;;
25155;SDS011;71253;51.496;7.606;2024-01-30T02:42:50;21.33;;;11.43;;
25155;SDS011;71253;51.496;7.606;2024-01-30T02:47:52;30.30;;;11.82;;
25155;SDS011;71253;51.496;7.606;2024-01-30T02:52:54;19.50;;;10.75;;
25155;SDS011;71253;51.496;7.606;2024-01-30T02:57:56;19.67;;;10.68;;
25155;SDS011;71253;51.496;7.606;2024-01-30T03:02:57;22.60;;;10.70;;
25155;SDS011;71253;51.496;7.606;2024-01-30T03:07:59;19.00;;;9.98;;
25155;SDS011;71253;51.496;7.606;2024-01-30T03:13:01;20.45;;;10.07;;
25155;SDS011;71253;51.496;7.606;2024-01-30T03:18:02;17.17;;;9.32;;
25155;SDS011;71253;51.496;7.606;2024-01-30T03:23:05;25.65;;;10.48;;
25155;SDS011;71253;51.496;7.606;2024-01-30T03:28:06;20.80;;;10.10;;
25155;SDS011;71253;51.496;7.606;2024-01-30T03:33:08;21.63;;;9.80;;
25155;SDS011;71253;51.496;7.606;2024-01-30T03:38:10;19.15;;;9.88;;
25155;SDS011;71253;51.496;7.606;2024-01-30T03:43:12;18.48;;;9.00;;
25155;SDS011;71253;51.496;7.606;2024-01-30T03:48:13;21.90;;;9.48;;
25155;SDS011;71253;51.496;7.606;2024-01-30T03:53:15;18.52;;;8.93;;
25155;SDS011;71253;51.496;7.606;2024-01-30T03:58:16;17.30;;;9.25;;
25155;SDS011;71253;51.496;7.606;2024-01-30T04:03:18;18.90;;;9.30;;
25155;SDS011;71253;51.496;7.606;2024-01-30T04:08:20;23.20;;;9.40;;
25155;SDS011;71253;51.496;7.606;2024-01-30T04:13:21;20.27;;;9.40;;
25155;SDS011;71253;51.496;7.606;2024-01-30T04:18:23;26.08;;;8.80;;
25155;SDS011;71253;51.496;7.606;2024-01-30T04:23:25;18.85;;;8.38;;
25155;SDS011;71253;51.496;7.606;2024-01-30T04:28:26;19.92;;;9.10;;
25155;SDS011;71253;51.496;7.606;2024-01-30T04:33:28;18.60;;;8.60;;
25155;SDS011;71253;51.496;7.606;2024-01-30T04:38:30;19.77;;;8.82;;
25155;SDS011;71253;51.496;7.606;2024-01-30T04:43:31;16.15;;;8.50;;
25155;SDS011;71253;51.496;7.606;2024-01-30T04:48:33;19.95;;;8.80;;
25155;SDS011;71253;51.496;7.606;2024-01-30T04:53:34;17.02;;;8.52;;
25155;SDS011;71253;51.496;7.606;2024-01-30T04:58:36;15.85;;;7.72;;
25155;SDS011;71253;51.496;7.606;2024-01-30T05:03:38;16.48;;;8.45;;
25155;SDS011;71253;51.496;7.606;2024-01-30T05:08:39;15.13;;;7.68;;
25155;SDS011;71253;51.496;7.606;2024-01-30T05:13:41;21.20;;;8.10;;
25155;SDS011;71253;51.496;7.606;2024-01-30T05:18:43;16.58;;;7.93;;
25155;SDS011;71253;51.496;7.606;2024-01-30T05:23:44;19.58;;;8.30;;
25155;SDS011;71253;51.496;7.606;2024-01-30T05:28:46;27.58;;;8.38;;
25155;SDS011;71253;51.496;7.606;2024-01-30T05:33:48;16.63;;;7.68;;
25155;SDS011;71253;51.496;7.606;2024-01-30T05:38:50;16.10;;;7.95;;
25155;SDS011;71253;51.496;7.606;2024-01-30T05:43:51;18.58;;;8.27;;
25155;SDS011;71253;51.496;7.606;2024-01-30T05:48:53;18.95;;;7.80;;
25155;SDS011;71253;51.496;7.606;2024-01-30T05:53:54;17.10;;;7.63;;
25155;SDS011;71253;51.496;7.606;2024-01-30T05:58:56;16.55;;;7.38;;
25155;SDS011;71253;51.496;7.606;2024-01-30T06:03:58;18.50;;;7.53;;
25155;SDS011;71253;51.496;7.606;2024-01-30T06:08:59;19.25;;;7.97;;
25155;SDS011;71253;51.496;7.606;2024-01-30T06:14:01;18.23;;;7.35;;
25155;SDS011;71253;51.496;7.606;2024-01-30T06:19:02;19.60;;;8.18;;
25155;SDS011;71253;51.496;7.606;2024-01-30T06:24:04;17.13;;;7.22;;
25155;SDS011;71253;51.496;7.606;2024-01-30T06:29:06;16.58;;;7.45;;
25155;SDS011;71253;51.496;7.606;2024-01-30T06:34:08;19.00;;;7.72;;
25155;SDS011;71253;51.496;7.606;2024-01-30T06:39:10;14.88;;;7.20;;
25155;SDS011;71253;51.496;7.606;2024-01-30T06:44:12;15.15;;;7.38;;
25155;SDS011;71253;51.496;7.606;2024-01-30T06:49:14;14.35;;;6.75;;
25155;SDS011;71253;51.496;7.606;2024-01-30T06:54:15;18.13;;;6.95;;
25155;SDS011;71253;51.496;7.606;2024-01-30T06:59:17;18.98;;;7.28;;
25155;SDS011;71253;51.496;7.606;2024-01-30T07:04:18;15.13;;;7.32;;
25155;SDS011;71253;51.496;7.606;2024-01-30T07:09:20;14.82;;;7.07;;
25155;SDS011;71253;51.496;7.606;2024-01-30T07:14:21;14.55;;;6.75;;
25155;SDS011;71253;51.496;7.606;2024-01-30T07:19:23;15.63;;;7.30;;
25155;SDS011;71253;51.496;7.606;2024-01-30T07:24:25;17.20;;;6.75;;
25155;SDS011;71253;51.496;7.606;2024-01-30T07:29:26;15.88;;;6.45;;
25155;SDS011;71253;51.496;7.606;2024-01-30T07:34:28;12.73;;;6.28;;
25155;SDS011;71253;51.496;7.606;2024-01-30T07:39:29;14.50;;;6.80;;
25155;SDS011;71253;51.496;7.606;2024-01-30T07:44:31;14.10;;;6.70;;
25155;SDS011;71253;51.496;7.606;2024-01-30T07:49:32;16.35;;;6.97;;
25155;SDS011;71253;51.496;7.606;2024-01-30T07:54:40;16.05;;;7.10;;
25155;SDS011;71253;51.496;7.606;2024-01-30T07:59:42;16.83;;;7.65;;
25155;SDS011;71253;51.496;7.606;2024-01-30T08:04:44;18.23;;;7.25;;
25155;SDS011;71253;51.496;7.606;2024-01-30T08:09:45;14.55;;;7.15;;
25155;SDS011;71253;51.496;7.606;2024-01-30T08:14:47;19.38;;;7.15;;
25155;SDS011;71253;51.496;7.606;2024-01-30T08:19:48;16.40;;;7.60;;
25155;SDS011;71253;51.496;7.606;2024-01-30T08:24:50;14.60;;;7.13;;
25155;SDS011;71253;51.496;7.606;2024-01-30T08:29:52;19.35;;;7.15;;
25155;SDS011;71253;51.496;7.606;2024-01-30T08:34:53;18.25;;;6.70;;
25155;SDS011;71253;51.496;7.606;2024-01-30T08:39:55;13.93;;;6.72;;
25155;SDS011;71253;51.496;7.606;2024-01-30T08:44:56;14.20;;;6.88;;
25155;SDS011;71253;51.496;7.606;2024-01-30T08:49:58;15.20;;;7.07;;
25155;SDS011;71253;51.496;7.606;2024-01-30T08:54:59;17.38;;;6.88;;
25155;SDS011;71253;51.496;7.606;2024-01-30T09:00:01;13.63;;;6.90;;
25155;SDS011;71253;51.496;7.606;2024-01-30T09:05:03;16.35;;;7.15;;
25155;SDS011;71253;51.496;7.606;2024-01-30T09:10:05;13.95;;;6.68;;
25155;SDS011;71253;51.496;7.606;2024-01-30T09:15:07;17.80;;;6.90;;
25155;SDS011;71253;51.496;7.606;2024-01-30T09:20:09;13.90;;;6.47;;
25155;SDS011;71253;51.496;7.606;2024-01-30T09:25:11;17.60;;;6.97;;
25155;SDS011;71253;51.496;7.606;2024-01-30T09:30:13;15.35;;;7.43;;
25155;SDS011;71253;51.496;7.606;2024-01-30T09:35:15;18.00;;;7.57;;
25155;SDS011;71253;51.496;7.606;2024-01-30T09:40:16;16.33;;;7.18;;
25155;SDS011;71253;51.496;7.606;2024-01-30T09:45:18;16.33;;;7.15;;
25155;SDS011;71253;51.496;7.606;2024-01-30T09:50:20;18.90;;;7.00;;
25155;SDS011;71253;51.496;7.606;2024-01-30T09:55:21;15.45;;;7.00;;
25155;SDS011;71253;51.496;7.606;2024-01-30T10:00:23;14.68;;;7.32;;
25155;SDS011;71253;51.496;7.606;2024-01-30T10:05:26;17.17;;;7.63;;
25155;SDS011;71253;51.496;7.606;2024-01-30T10:10:28;17.73;;;7.53;;
25155;SDS011;71253;51.496;7.606;2024-01-30T10:15:30;14.63;;;7.63;;
25155;SDS011;71253;51.496;7.606;2024-01-30T10:20:32;16.48;;;7.28;;
25155;SDS011;71253;51.496;7.606;2024-01-30T10:25:34;16.63;;;7.55;;
25155;SDS011;71253;51.496;7.606;2024-01-30T10:30:35;19.27;;;7.88;;
25155;SDS011;71253;51.496;7.606;2024-01-30T10:35:37;17.42;;;7.63;;
25155;SDS011;71253;51.496;7.606;2024-01-30T10:40:38;20.13;;;8.40;;
25155;SDS011;71253;51.496;7.606;2024-01-30T10:45:41;22.40;;;8.50;;
25155;SDS011;71253;51.496;7.606;2024-01-30T10:50:47;23.35;;;8.75;;
25155;SDS011;71253;51.496;7.606;2024-01-30T10:55:51;20.25;;;8.80;;
25155;SDS011;71253;51.496;7.606;2024-01-30T11:00:55;19.98;;;9.23;;
25155;SDS011;71253;51.496;7.606;2024-01-30T11:05:59;19.30;;;9.35;;
25155;SDS011;71253;51.496;7.606;2024-01-30T11:11:01;22.85;;;8.43;;
25155;SDS011;71253;51.496;7.606;2024-01-30T11:16:05;20.00;;;7.72;;
25155;SDS011;71253;51.496;7.606;2024-01-30T11:21:07;17.55;;;7.18;;
25155;SDS011;71253;51.496;7.606;2024-01-30T11:26:12;16.52;;;7.13;;
25155;SDS011;71253;51.496;7.606;2024-01-30T11:31:13;14.93;;;6.28;;
25155;SDS011;71253;51.496;7.606;2024-01-30T11:36:21;13.98;;;6.30;;
25155;SDS011;71253;51.496;7.606;2024-01-30T11:41:27;13.85;;;5.65;;
25155;SDS011;71253;51.496;7.606;2024-01-30T11:46:29;15.15;;;6.32;;
25155;SDS011;71253;51.496;7.606;2024-01-30T11:51:31;22.30;;;6.95;;
25155;SDS011;71253;51.496;7.606;2024-01-30T11:56:33;24.02;;;7.03;;
25155;SDS011;71253;51.496;7.606;2024-01-30T12:01:34;17.23;;;6.70;;
25155;SDS011;71253;51.496;7.606;2024-01-30T12:06:36;17.20;;;7.00;;
25155;SDS011;71253;51.496;7.606;2024-01-30T12:11:47;21.10;;;6.70;;
25155;SDS011;71253;51.496;7.606;2024-01-30T12:16:50;18.35;;;6.32;;
25155;SDS011;71253;51.496;7.606;2024-01-30T12:21:55;21.92;;;6.88;;
25155;SDS011;71253;51.496;7.606;2024-01-30T12:26:58;23.05;;;6.63;;
25155;SDS011;71253;51.496;7.606;2024-01-30T12:32:00;25.50;;;6.78;;
25155;SDS011;71253;51.496;7.606;2024-01-30T12:37:02;20.08;;;6.78;;
25155;SDS011;71253;51.496;7.606;2024-01-30T12:42:04;23.30;;;7.07;;
25155;SDS011;71253;51.496;7.606;2024-01-30T12:47:05;20.38;;;6.80;;
25155;SDS011;71253;51.496;7.606;2024-01-30T12:52:07;26.52;;;7.25;;
25155;SDS011;71253;51.496;7.606;2024-01-30T12:57:09;28.08;;;8.02;;
25155;SDS011;71253;51.496;7.606;2024-01-30T13:02:11;32.15;;;7.88;;
25155;SDS011;71253;51.496;7.606;2024-01-30T13:07:16;26.63;;;8.95;;
25155;SDS011;71253;51.496;7.606;2024-01-30T13:12:18;22.60;;;8.82;;
25155;SDS011;71253;51.496;7.606;2024-01-30T13:17:19;24.92;;;8.57;;
25155;SDS011;71253;51.496;7.606;2024-01-30T13:22:21;21.90;;;9.15;;
25155;SDS011;71253;51.496;7.606;2024-01-30T13:27:23;27.33;;;9.60;;
25155;SDS011;71253;51.496;7.606;2024-01-30T13:32:24;25.30;;;9.10;;
25155;SDS011;71253;51.496;7.606;2024-01-30T13:37:26;30.83;;;9.38;;
25155;SDS011;71253;51.496;7.606;2024-01-30T13:42:28;23.23;;;9.32;;
25155;SDS011;71253;51.496;7.606;2024-01-30T13:47:29;20.00;;;9.32;;
25155;SDS011;71253;51.496;7.606;2024-01-30T13:52:31;21.98;;;8.70;;
25155;SDS011;71253;51.496;7.606;2024-01-30T13:57:33;25.27;;;9.40;;
25155;SDS011;71253;51.496;7.606;2024-01-30T14:02:34;22.90;;;9.93;;
25155;SDS011;71253;51.496;7.606;2024-01-30T14:07:36;26.65;;;10.00;;
25155;SDS011;71253;51.496;7.606;2024-01-30T14:12:39;21.45;;;10.30;;
25155;SDS011;71253;51.496;7.606;2024-01-30T14:17:40;22.73;;;10.30;;
25155;SDS011;71253;51.496;7.606;2024-01-30T14:22:42;24.45;;;10.73;;
25155;SDS011;71253;51.496;7.606;2024-01-30T14:27:44;19.63;;;9.90;;
25155;SDS011;71253;51.496;7.606;2024-01-30T14:32:45;19.67;;;9.68;;
25155;SDS011;71253;51.496;7.606;2024-01-30T14:37:47;25.48;;;10.15;;
25155;SDS011;71253;51.496;7.606;2024-01-30T14:42:49;22.33;;;10.20;;
25155;SDS011;71253;51.496;7.606;2024-01-30T14:47:50;22.15;;;9.35;;
25155;SDS011;71253;51.496;7.606;2024-01-30T14:52:52;22.63;;;9.85;;
25155;SDS011;71253;51.496;7.606;2024-01-30T14:57:54;23.92;;;11.07;;
25155;SDS011;71253;51.496;7.606;2024-01-30T15:02:56;25.13;;;10.27;;
25155;SDS011;71253;51.496;7.606;2024-01-30T15:07:57;28.52;;;10.32;;
25155;SDS011;71253;51.496;7.606;2024-01-30T15:12:59;33.33;;;10.63;;
25155;SDS011;71253;51.496;7.606;2024-01-30T15:18:00;26.60;;;10.30;;
25155;SDS011;71253;51.496;7.606;2024-01-30T15:23:02;22.65;;;9.57;;
25155;SDS011;71253;51.496;7.606;2024-01-30T15:28:04;32.85;;;9.13;;
25155;SDS011;71253;51.496;7.606;2024-01-30T15:33:06;24.67;;;9.15;;
25155;SDS011;71253;51.496;7.606;2024-01-30T15:38:07;23.75;;;9.40;;
25155;SDS011;71253;51.496;7.606;2024-01-30T15:43:09;21.67;;;9.45;;
25155;SDS011;71253;51.496;7.606;2024-01-30T15:48:11;17.33;;;8.98;;
25155;SDS011;71253;51.496;7.606;2024-01-30T15:53:12;20.13;;;9.45;;
25155;SDS011;71253;51.496;7.606;2024-01-30T15:58:14;28.25;;;9.95;;
25155;SDS011;71253;51.496;7.606;2024-01-30T16:03:16;24.20;;;9.88;;
25155;SDS011;71253;51.496;7.606;2024-01-30T16:08:17;27.35;;;10.90;;
25155;SDS011;71253;51.496;7.606;2024-01-30T16:13:19;21.73;;;10.50;;
25155;SDS011;71253;51.496;7.606;2024-01-30T16:18:20;29.17;;;10.55;;
25155;SDS011;71253;51.496;7.606;2024-01-30T16:23:22;17.25;;;8.77;;
25155;SDS011;71253;51.496;7.606;2024-01-30T16:28:24;24.75;;;8.60;;
25155;SDS011;71253;51.496;7.606;2024-01-30T16:33:26;20.85;;;8.27;;
25155;SDS011;71253;51.496;7.606;2024-01-30T16:38:28;20.40;;;8.23;;
25155;SDS011;71253;51.496;7.606;2024-01-30T16:43:29;20.58;;;8.73;;
25155;SDS011;71253;51.496;7.606;2024-01-30T16:48:31;21.90;;;8.02;;
25155;SDS011;71253;51.496;7.606;2024-01-30T16:53:33;15.73;;;5.30;;
25155;SDS011;71253;51.496;7.606;2024-01-30T16:58:34;12.98;;;3.22;;
25155;SDS011;71253;51.496;7.606;2024-01-30T17:03:36;8.52;;;2.78;;
25155;SDS011;71253;51.496;7.606;2024-01-30T17:08:38;6.70;;;1.98;;
25155;SDS011;71253;51.496;7.606;2024-01-30T17:13:40;4.85;;;1.80;;
25155;SDS011;71253;51.496;7.606;2024-01-30T17:18:41;9.35;;;1.85;;
25155;SDS011;71253;51.496;7.606;2024-01-30T17:23:46;10.18;;;1.98;;
25155;SDS011;71253;51.496;7.606;2024-01-30T17:28:47;8.80;;;1.90;;
25155;SDS011;71253;51.496;7.606;2024-01-30T17:33:49;9.85;;;1.90;;
25155;SDS011;71253;51.496;7.606;2024-01-30T17:38:51;7.22;;;1.95;;
25155;SDS011;71253;51.496;7.606;2024-01-30T17:43:52;7.10;;;1.80;;
25155;SDS011;71253;51.496;7.606;2024-01-30T17:48:54;11.75;;;2.13;;
25155;SDS011;71253;51.496;7.606;2024-01-30T17:53:56;9.98;;;1.92;;
25155;SDS011;71253;51.496;7.606;2024-01-30T17:58:57;15.13;;;2.13;;
25155;SDS011;71253;51.496;7.606;2024-01-30T18:03:59;10.65;;;2.13;;
25155;SDS011;71253;51.496;7.606;2024-01-30T18:09:01;10.55;;;1.92;;
25155;SDS011;71253;51.496;7.606;2024-01-30T18:14:02;6.85;;;1.77;;
25155;SDS011;71253;51.496;7.606;2024-01-30T18:19:04;11.10;;;1.90;;
25155;SDS011;71253;51.496;7.606;2024-01-30T18:24:06;9.38;;;1.75;;
25155;SDS011;71253;51.496;7.606;2024-01-30T18:29:08;6.25;;;1.98;;
25155;SDS011;71253;51.496;7.606;2024-01-30T18:34:10;12.05;;;3.03;;
25155;SDS011;71253;51.496;7.606;2024-01-30T18:39:12;15.43;;;3.47;;
25155;SDS011;71253;51.496;7.606;2024-01-30T18:44:14;10.45;;;2.85;;
25155;SDS011;71253;51.496;7.606;2024-01-30T18:49:15;8.48;;;4.32;;
25155;SDS011;71253;51.496;7.606;2024-01-30T18:54:18;13.35;;;4.90;;
25155;SDS011;71253;51.496;7.606;2024-01-30T18:59:20;11.77;;;4.28;;
25155;SDS011;71253;51.496;7.606;2024-01-30T19:04:21;7.45;;;4.00;;
25155;SDS011;71253;51.496;7.606;2024-01-30T19:09:23;6.22;;;2.90;;
25155;SDS011;71253;51.496;7.606;2024-01-30T19:14:25;5.93;;;2.50;;
25155;SDS011;71253;51.496;7.606;2024-01-30T19:19:27;5.35;;;2.58;;
25155;SDS011;71253;51.496;7.606;2024-01-30T19:24:29;4.68;;;2.58;;
25155;SDS011;71253;51.496;7.606;2024-01-30T19:29:31;6.18;;;2.47;;
25155;SDS011;71253;51.496;7.606;2024-01-30T19:34:32;6.90;;;2.63;;
25155;SDS011;71253;51.496;7.606;2024-01-30T19:39:36;8.75;;;2.90;;
25155;SDS011;71253;51.496;7.606;2024-01-30T19:44:37;8.93;;;3.33;;
25155;SDS011;71253;51.496;7.606;2024-01-30T19:49:39;6.57;;;3.05;;
25155;SDS011;71253;51.496;7.606;2024-01-30T19:54:41;8.43;;;3.67;;
25155;SDS011;71253;51.496;7.606;2024-01-30T19:59:43;10.70;;;4.00;;
25155;SDS011;71253;51.496;7.606;2024-01-30T20:04:45;8.48;;;4.25;;
25155;SDS011;71253;51.496;7.606;2024-01-30T20:09:47;10.45;;;4.57;;
25155;SDS011;71253;51.496;7.606;2024-01-30T20:14:48;10.18;;;5.50;;
25155;SDS011;71253;51.496;7.606;2024-01-30T20:19:50;12.80;;;5.85;;
25155;SDS011;71253;51.496;7.606;2024-01-30T20:24:52;12.90;;;6.30;;
25155;SDS011;71253;51.496;7.606;2024-01-30T20:29:54;15.82;;;6.78;;
25155;SDS011;71253;51.496;7.606;2024-01-30T20:34:55;13.10;;;7.45;;
25155;SDS011;71253;51.496;7.606;2024-01-30T20:39:57;16.67;;;7.78;;
25155;SDS011;71253;51.496;7.606;2024-01-30T20:44:58;14.98;;;7.50;;
25155;SDS011;71253;51.496;7.606;2024-01-30T20:50:01;15.80;;;7.22;;
25155;SDS011;71253;51.496;7.606;2024-01-30T20:55:02;14.27;;;7.68;;
25155;SDS011;71253;51.496;7.606;2024-01-30T21:00:05;17.02;;;8.40;;
25155;SDS011;71253;51.496;7.606;2024-01-30T21:05:07;18.75;;;8.88;;
25155;SDS011;71253;51.496;7.606;2024-01-30T21:10:09;20.45;;;9.60;;
25155;SDS011;71253;51.496;7.606;2024-01-30T21:15:11;18.75;;;11.13;;
25155;SDS011;71253;51.496;7.606;2024-01-30T21:20:13;18.75;;;11.75;;
25155;SDS011;71253;51.496;7.606;2024-01-30T21:25:15;20.80;;;12.93;;
25155;SDS011;71253;51.496;7.606;2024-01-30T21:30:16;23.42;;;13.80;;
25155;SDS011;71253;51.496;7.606;2024-01-30T21:35:18;26.40;;;14.80;;
25155;SDS011;71253;51.496;7.606;2024-01-30T21:40:20;27.65;;;15.50;;
25155;SDS011;71253;51.496;7.606;2024-01-30T21:45:21;27.00;;;15.60;;
25155;SDS011;71253;51.496;7.606;2024-01-30T21:50:23;24.23;;;15.02;;
25155;SDS011;71253;51.496;7.606;2024-01-30T21:55:24;30.83;;;16.35;;
25155;SDS011;71253;51.496;7.606;2024-01-30T22:00:26;31.85;;;17.15;;
25155;SDS011;71253;51.496;7.606;2024-01-30T22:05:30;28.90;;;17.63;;
25155;SDS011;71253;51.496;7.606;2024-01-30T22:10:32;34.03;;;19.00;;
25155;SDS011;71253;51.496;7.606;2024-01-30T22:15:34;39.03;;;21.08;;
25155;SDS011;71253;51.496;7.606;2024-01-30T22:20:35;41.15;;;21.33;;
25155;SDS011;71253;51.496;7.606;2024-01-30T22:25:37;43.08;;;23.58;;
25155;SDS011;71253;51.496;7.606;2024-01-30T22:30:38;45.38;;;24.88;;
25155;SDS011;71253;51.496;7.606;2024-01-30T22:35:40;43.80;;;25.58;;
25155;SDS011;71253;51.496;7.606;2024-01-30T22:40:42;47.97;;;27.80;;
25155;SDS011;71253;51.496;7.606;2024-01-30T22:45:43;45.05;;;29.38;;
25155;SDS011;71253;51.496;7.606;2024-01-30T22:50:45;46.83;;;28.02;;
25155;SDS011;71253;51.496;7.606;2024-01-30T22:55:46;49.65;;;28.80;;
25155;SDS011;71253;51.496;7.606;2024-01-30T23:00:48;50.13;;;29.42;;
25155;SDS011;71253;51.496;7.606;2024-01-30T23:05:50;48.63;;;28.52;;
25155;SDS011;71253;51.496;7.606;2024-01-30T23:10:51;52.05;;;30.27;;
25155;SDS011;71253;51.496;7.606;2024-01-30T23:15:53;53.17;;;29.73;;
25155;SDS011;71253;51.496;7.606;2024-01-30T23:20:54;53.63;;;29.13;;
25155;SDS011;71253;51.496;7.606;2024-01-30T23:25:56;53.42;;;29.67;;
25155;SDS011;71253;51.496;7.606;2024-01-30T23:30:58;47.33;;;28.80;;
25155;SDS011;71253;51.496;7.606;2024-01-30T23:35:59;55.03;;;31.48;;
25155;SDS011;71253;51.496;7.606;2024-01-30T23:41:01;62.85;;;34.22;;
25155;SDS011;71253;51.496;7.606;2024-01-30T23:46:02;63.45;;;34.25;;
25155;SDS011;71253;51.496;7.606;2024-01-30T23:51:04;37.47;;;18.85;;
25155;SDS011;71253;51.496;7.606;2024-01-30T23:56:06;29.10;;;14.93;;
